createdAt,value
2022-12-16T00:04:03.122Z,-4.44
2022-12-16T00:09:05.685Z,-4.41
2022-12-16T00:14:08.270Z,-4.26
2022-12-16T00:19:10.873Z,-4.31
2022-12-16T00:24:13.487Z,-4.32
2022-12-16T00:29:19.110Z,-4.35
2022-12-16T00:39:24.618Z,-4.46
2022-12-16T00:44:27.214Z,-4.62
2022-12-16T00:49:30.041Z,-4.69
2022-12-16T00:54:32.500Z,-4.74
2022-12-16T00:59:35.069Z,-4.67
2022-12-16T01:04:37.321Z,-4.63
2022-12-16T01:09:40.050Z,-4.62
2022-12-16T01:14:42.676Z,-4.57
2022-12-16T01:19:45.229Z,-4.68
2022-12-16T01:24:48.078Z,-4.67
2022-12-16T01:29:50.620Z,-4.78
2022-12-16T01:34:54.872Z,-4.72
2022-12-16T01:44:58.460Z,-4.62
2022-12-16T01:50:00.964Z,-4.73
2022-12-16T01:55:03.189Z,-4.59
2022-12-16T02:00:05.590Z,-4.58
2022-12-16T02:05:08.297Z,-4.45
2022-12-16T02:15:13.235Z,-4.65
2022-12-16T02:20:15.965Z,-4.72
2022-12-16T02:25:18.465Z,-4.7
2022-12-16T02:30:21.405Z,-4.67
2022-12-16T02:35:24.066Z,-4.7
2022-12-16T02:40:26.870Z,-4.74
2022-12-16T02:45:29.592Z,-4.79
2022-12-16T02:50:32.301Z,-4.88
2022-12-16T03:00:37.458Z,-4.94
2022-12-16T03:05:40.068Z,-4.97
2022-12-16T03:15:45.510Z,-4.98
2022-12-16T03:20:48.035Z,-4.96
2022-12-16T03:25:50.704Z,-4.88
2022-12-16T03:30:53.626Z,-4.72
2022-12-16T03:35:56.099Z,-4.68
2022-12-16T03:40:59.006Z,-4.58
2022-12-16T03:46:19.515Z,-4.5
2022-12-16T03:51:22.211Z,-4.47
2022-12-16T03:56:24.806Z,-4.39
2022-12-16T04:01:31.163Z,-4.38
2022-12-16T04:06:33.793Z,-4.33
2022-12-16T04:11:36.290Z,-4.55
2022-12-16T04:16:38.676Z,-4.53
2022-12-16T04:21:41.452Z,-4.54
2022-12-16T04:32:47.172Z,-4.17
2022-12-16T04:37:49.926Z,-4.22
2022-12-16T04:42:52.483Z,-4.47
2022-12-16T04:47:57.428Z,-4.47
2022-12-16T04:52:57.951Z,-4.48
2022-12-16T04:58:00.665Z,-4.54
2022-12-16T05:03:03.245Z,-4.54
2022-12-16T05:08:05.778Z,-4.53
2022-12-16T05:13:08.177Z,-4.58
2022-12-16T05:18:10.893Z,-4.58
2022-12-16T05:23:13.314Z,-4.7
2022-12-16T05:28:19.862Z,-4.72
2022-12-16T05:33:22.735Z,-4.6
2022-12-16T05:43:27.517Z,-4.53
2022-12-16T05:48:30.441Z,-4.42
2022-12-16T05:53:33.325Z,-4.37
2022-12-16T05:58:35.608Z,-4.27
2022-12-16T06:03:38.730Z,-4.28
2022-12-16T06:08:41.040Z,-4.29
2022-12-16T06:13:43.525Z,-4.21
2022-12-16T06:18:46.029Z,-4.15
2022-12-16T06:23:48.843Z,-4.12
2022-12-16T06:28:51.467Z,-4.15
2022-12-16T06:33:55.025Z,-4.16
2022-12-16T06:38:56.761Z,-4.25
2022-12-16T06:43:59.163Z,-4.21
2022-12-16T06:49:01.659Z,-4.21
2022-12-16T06:54:04.919Z,-4.13
2022-12-16T06:59:07.540Z,-4.14
2022-12-16T07:04:10.070Z,-4.24
2022-12-16T07:09:12.454Z,-4.23
2022-12-16T07:14:15.226Z,-4.26
2022-12-16T07:19:17.967Z,-4.25
2022-12-16T07:24:20.704Z,-4.3
2022-12-16T07:29:23.370Z,-4.22
2022-12-16T07:34:25.920Z,-4.19
2022-12-16T07:39:28.539Z,-4.09
2022-12-16T07:44:31.165Z,-4.17
2022-12-16T07:49:33.863Z,-4.15
2022-12-16T07:54:36.588Z,-4.06
2022-12-16T07:59:39.329Z,-3.98
2022-12-16T08:04:42.280Z,-3.8
2022-12-16T08:09:44.730Z,-3.88
2022-12-16T08:24:53.759Z,-3.67
2022-12-16T08:34:58.012Z,-3.52
2022-12-16T08:40:26.006Z,-3.44
2022-12-16T08:45:03.228Z,-3.18
2022-12-16T08:50:05.886Z,-2.91
2022-12-16T09:10:16.405Z,-2.09
2022-12-16T09:15:19.184Z,-2
2022-12-16T09:20:22.152Z,-1.96
2022-12-16T09:25:24.914Z,-1.97
2022-12-16T09:35:30.352Z,-1.82
2022-12-16T09:40:33.114Z,-1.57
2022-12-16T09:50:38.633Z,-1.43
2022-12-16T09:55:41.539Z,-1.31
2022-12-16T10:00:44.275Z,-1.12
2022-12-16T10:15:52.873Z,-0.83
2022-12-16T10:20:55.587Z,-0.73
2022-12-16T10:25:58.412Z,-0.82
2022-12-16T10:31:01.583Z,-0.85
2022-12-16T10:41:06.695Z,-0.88
2022-12-16T10:46:09.360Z,-0.75
2022-12-16T10:51:11.987Z,-0.69
2022-12-16T10:56:14.785Z,-0.71
2022-12-16T11:06:20.044Z,-1.23
2022-12-16T11:21:31.323Z,-0.62
2022-12-16T11:26:36.967Z,-0.67
2022-12-16T11:31:36.789Z,-0.84
2022-12-16T11:36:39.234Z,-0.82
2022-12-16T11:46:45.147Z,-0.59
2022-12-16T11:51:47.841Z,-0.46
2022-12-16T11:56:50.464Z,-0.46
2022-12-16T12:01:56.221Z,-0.39
2022-12-16T12:06:58.830Z,-0.13
2022-12-16T12:17:03.818Z,-0.1
2022-12-16T12:22:06.494Z,-0.23
2022-12-16T12:27:09.156Z,-0.15
2022-12-16T12:32:11.640Z,-0.29
2022-12-16T12:37:14.284Z,-0.41
2022-12-16T12:47:22.412Z,-0.32
2022-12-16T12:52:25.191Z,-0.38
2022-12-16T12:57:27.788Z,-0.56
2022-12-16T13:02:30.873Z,-0.29
2022-12-16T13:07:33.520Z,-0.24
2022-12-16T13:12:36.155Z,-0.41
2022-12-16T13:17:38.585Z,-0.59
2022-12-16T13:22:41.438Z,-0.35
2022-12-16T13:27:44.233Z,-0.29
2022-12-16T13:37:49.663Z,-0.49
2022-12-16T13:42:52.404Z,-0.29
2022-12-16T13:47:54.990Z,-0.39
2022-12-16T13:52:57.491Z,-0.6
2022-12-16T13:58:00.194Z,-0.39
2022-12-16T14:03:02.687Z,-0.51
2022-12-16T14:08:05.375Z,-0.77
2022-12-16T14:13:08.061Z,-0.77
2022-12-16T14:18:10.752Z,-0.66
2022-12-16T14:28:15.976Z,-0.78
2022-12-16T14:33:18.630Z,-0.63
2022-12-16T14:38:21.248Z,-0.89
2022-12-16T14:43:23.837Z,-0.92
2022-12-16T14:48:26.383Z,-0.87
2022-12-16T14:53:29.401Z,-0.75
2022-12-16T14:58:31.844Z,-0.73
2022-12-16T15:03:34.875Z,-0.8
2022-12-16T15:08:37.971Z,-1.04
2022-12-16T15:13:40.762Z,-1.12
2022-12-16T15:18:43.102Z,-1.06
2022-12-16T15:23:45.648Z,-1.09
2022-12-16T15:28:48.380Z,-1.07
2022-12-16T15:33:51.461Z,-1.09
2022-12-16T15:38:53.694Z,-1.1
2022-12-16T15:43:57.734Z,-1.14
2022-12-16T15:48:59.339Z,-1.03
2022-12-16T15:54:01.971Z,-1.07
2022-12-16T15:59:04.576Z,-1.16
2022-12-16T16:04:07.140Z,-1.09
2022-12-16T16:09:09.476Z,-1.05
2022-12-16T16:14:14.309Z,-0.97
2022-12-16T16:19:14.617Z,-1.15
2022-12-16T16:24:16.952Z,-1.08
2022-12-16T16:29:19.854Z,-1.03
2022-12-16T16:34:22.426Z,-1.01
2022-12-16T16:39:24.745Z,-1.03
2022-12-16T16:44:27.499Z,-0.92
2022-12-16T16:49:30.123Z,-1.01
2022-12-16T16:54:32.653Z,-1.01
2022-12-16T16:59:35.238Z,-1.05
2022-12-16T17:04:37.944Z,-0.94
2022-12-16T17:09:41.257Z,-1.2
2022-12-16T17:14:43.703Z,-1.23
2022-12-16T17:19:46.185Z,-1.38
2022-12-16T17:24:52.830Z,-1.31
2022-12-16T17:29:51.526Z,-1.36
2022-12-16T17:34:54.146Z,-1.29
2022-12-16T17:39:59.307Z,-1.25
2022-12-16T17:45:01.761Z,-1.3
2022-12-16T17:50:04.205Z,-1.36
2022-12-16T17:55:07.687Z,-1.32
2022-12-16T18:00:10.326Z,-1.34
2022-12-16T18:05:13.094Z,-1.27
2022-12-16T18:10:15.670Z,-1.28
2022-12-16T18:15:18.387Z,-1.25
2022-12-16T18:20:21.138Z,-1.25
2022-12-16T18:25:23.704Z,-1.23
2022-12-16T18:30:26.460Z,-1.02
2022-12-16T18:35:29.074Z,-1.09
2022-12-16T18:40:31.599Z,-1.08
2022-12-16T18:45:34.119Z,-1.15
2022-12-16T18:50:38.183Z,-0.97
2022-12-16T18:55:39.766Z,-0.85
2022-12-16T19:00:42.424Z,-0.97
2022-12-16T19:05:45.622Z,-0.95
2022-12-16T19:10:48.115Z,-0.93
2022-12-16T19:15:50.593Z,-0.98
2022-12-16T19:20:53.132Z,-1
2022-12-16T19:25:55.599Z,-0.93
2022-12-16T19:30:58.306Z,-1.05
2022-12-16T19:36:00.870Z,-0.97
2022-12-16T19:41:03.608Z,-0.96
2022-12-16T19:46:06.175Z,-1.04
2022-12-16T19:51:09.509Z,-0.96
2022-12-16T19:56:14.339Z,-1
2022-12-16T20:01:16.854Z,-1.05
2022-12-16T20:06:19.638Z,-0.94
2022-12-16T20:16:25.230Z,-0.89
2022-12-16T20:21:28.027Z,-0.91
2022-12-16T20:26:30.781Z,-0.9
2022-12-16T20:31:34.162Z,-0.9
2022-12-16T20:36:36.774Z,-0.95
2022-12-16T20:41:39.566Z,-0.89
2022-12-16T20:46:42.266Z,-0.83
2022-12-16T20:51:47.506Z,-0.7
2022-12-16T20:56:50.067Z,-0.63
2022-12-16T21:02:21.468Z,-0.63
2022-12-16T21:06:56.052Z,-0.73
2022-12-16T21:11:58.220Z,-0.69
2022-12-16T21:17:00.901Z,-0.52
2022-12-16T21:22:03.394Z,-0.4
2022-12-16T21:27:06.018Z,-0.54
2022-12-16T21:32:08.750Z,-0.66
2022-12-16T21:37:11.001Z,-0.75
2022-12-16T21:42:14.164Z,-0.74
2022-12-16T21:47:16.933Z,-0.72
2022-12-16T21:52:19.782Z,-0.48
2022-12-16T21:57:22.945Z,-0.62
2022-12-16T22:02:25.818Z,-0.51
2022-12-16T22:07:28.568Z,-0.45
2022-12-16T22:12:31.156Z,-0.42
2022-12-16T22:17:33.835Z,-0.37
2022-12-16T22:22:36.089Z,-0.57
2022-12-16T22:27:38.796Z,-0.58
2022-12-16T22:32:41.573Z,-0.5
2022-12-16T22:37:44.252Z,-0.54
2022-12-16T22:42:46.941Z,-0.44
2022-12-16T22:47:49.662Z,-0.7
2022-12-16T22:52:52.202Z,-0.68
2022-12-16T22:57:54.731Z,-0.81
2022-12-16T23:03:04.183Z,-0.7
2022-12-16T23:08:06.854Z,-0.7
2022-12-16T23:13:09.487Z,-0.58
2022-12-16T23:18:12.257Z,-0.49
2022-12-16T23:23:14.793Z,-0.45
2022-12-16T23:28:17.356Z,-0.47
2022-12-16T23:33:20.191Z,-0.43
2022-12-16T23:38:22.892Z,-0.48
2022-12-16T23:43:25.376Z,-0.63
2022-12-16T23:48:28.182Z,-0.51
2022-12-16T23:53:30.771Z,-0.46
2022-12-16T23:58:33.317Z,-0.53
